createdAt,value
2018-07-03T00:00:44.611Z,0.00
2018-07-03T00:01:44.503Z,0.00
2018-07-03T00:02:44.410Z,0.00
2018-07-03T00:03:44.307Z,0.00
2018-07-03T00:04:44.201Z,0.00
2018-07-03T00:05:44.109Z,0.00
2018-07-03T00:06:44.013Z,0.00
2018-07-03T00:07:43.923Z,0.00
2018-07-03T00:08:43.812Z,0.00
2018-07-03T00:09:43.722Z,0.00
2018-07-03T00:10:43.622Z,0.00
2018-07-03T00:11:43.519Z,0.00
2018-07-03T00:12:43.430Z,0.00
2018-07-03T00:13:43.327Z,0.00
2018-07-03T00:14:43.231Z,0.00
2018-07-03T00:15:43.128Z,0.00
2018-07-03T00:16:43.028Z,0.00
2018-07-03T00:17:42.938Z,0.00
2018-07-03T00:18:42.829Z,0.00
2018-07-03T00:19:42.737Z,0.00
2018-07-03T00:20:42.639Z,0.00
2018-07-03T00:21:42.546Z,0.00
2018-07-03T00:22:42.448Z,0.00
2018-07-03T00:23:42.343Z,0.00
2018-07-03T00:24:42.246Z,0.00
2018-07-03T00:25:42.142Z,0.00
2018-07-03T00:26:42.056Z,0.00
2018-07-03T00:27:41.953Z,0.00
2018-07-03T00:28:41.853Z,0.00
2018-07-03T00:29:41.761Z,0.00
2018-07-03T00:30:41.654Z,0.00
2018-07-03T00:31:41.563Z,0.00
2018-07-03T00:32:41.461Z,0.00
2018-07-03T00:33:41.358Z,0.00
2018-07-03T00:34:41.263Z,0.00
2018-07-03T00:35:41.159Z,0.00
2018-07-03T00:36:41.072Z,0.00
2018-07-03T00:37:40.968Z,0.00
2018-07-03T00:38:40.879Z,0.00
2018-07-03T00:39:40.777Z,0.00
2018-07-03T00:40:40.672Z,0.00
2018-07-03T00:41:40.580Z,0.00
2018-07-03T00:42:40.480Z,0.00
2018-07-03T00:43:40.377Z,0.00
2018-07-03T00:44:40.296Z,0.00
2018-07-03T00:45:40.180Z,0.00
2018-07-03T00:46:40.075Z,0.00
2018-07-03T00:47:39.984Z,0.00
2018-07-03T00:48:39.890Z,0.00
2018-07-03T00:49:39.794Z,0.00
2018-07-03T00:50:39.936Z,0.00
2018-07-03T00:51:39.584Z,0.00
2018-07-03T00:52:39.491Z,0.00
2018-07-03T00:53:39.387Z,0.00
2018-07-03T00:54:39.301Z,0.00
2018-07-03T00:55:39.198Z,0.00
2018-07-03T00:56:39.090Z,0.00
2018-07-03T00:57:39.000Z,0.00
2018-07-03T00:58:38.900Z,0.00
2018-07-03T00:59:38.809Z,0.00
2018-07-03T01:00:38.708Z,0.00
2018-07-03T01:01:38.604Z,0.00
2018-07-03T01:02:38.511Z,0.00
2018-07-03T01:03:38.443Z,0.00
2018-07-03T01:04:38.305Z,0.00
2018-07-03T01:05:38.214Z,0.00
2018-07-03T01:06:38.107Z,0.00
2018-07-03T01:07:38.009Z,0.00
2018-07-03T01:08:37.916Z,0.00
2018-07-03T01:09:37.813Z,0.00
2018-07-03T01:10:37.724Z,0.00
2018-07-03T01:11:37.621Z,0.00
2018-07-03T01:12:37.514Z,0.00
2018-07-03T01:13:37.424Z,0.00
2018-07-03T01:14:37.325Z,0.00
2018-07-03T01:15:37.233Z,0.00
2018-07-03T01:16:37.127Z,0.00
2018-07-03T01:17:37.024Z,0.00
2018-07-03T01:18:36.929Z,0.00
2018-07-03T01:19:36.827Z,0.00
2018-07-03T01:20:36.730Z,0.00
2018-07-03T01:21:36.638Z,0.00
2018-07-03T01:22:36.532Z,0.00
2018-07-03T01:23:36.441Z,0.00
2018-07-03T01:24:36.335Z,0.00
2018-07-03T01:25:36.232Z,0.00
2018-07-03T01:26:36.145Z,0.00
2018-07-03T01:27:36.042Z,0.00
2018-07-03T01:28:35.940Z,0.00
2018-07-03T01:29:35.848Z,0.00
2018-07-03T01:30:35.740Z,0.00
2018-07-03T01:31:35.641Z,0.00
2018-07-03T01:32:35.547Z,0.00
2018-07-03T01:33:35.444Z,0.00
2018-07-03T01:34:35.346Z,0.00
2018-07-03T01:35:35.255Z,0.00
2018-07-03T01:36:35.145Z,0.00
2018-07-03T01:37:35.061Z,0.00
2018-07-03T01:38:34.955Z,0.00
2018-07-03T01:39:34.853Z,0.00
2018-07-03T01:40:34.764Z,0.00
2018-07-03T01:41:34.660Z,0.00
2018-07-03T01:42:34.553Z,0.00
2018-07-03T01:43:34.463Z,0.00
2018-07-03T01:44:34.363Z,0.00
2018-07-03T01:45:34.273Z,0.00
2018-07-03T01:46:34.165Z,0.00
2018-07-03T01:47:34.061Z,0.00
2018-07-03T01:48:33.960Z,0.00
2018-07-03T01:49:33.864Z,0.00
2018-07-03T01:50:33.765Z,0.00
2018-07-03T01:51:33.675Z,0.00
2018-07-03T01:52:33.570Z,0.00
2018-07-03T01:53:33.470Z,0.00
2018-07-03T01:54:33.379Z,0.00
2018-07-03T01:55:33.276Z,0.00
2018-07-03T01:56:33.170Z,0.00
2018-07-03T01:57:33.080Z,0.00
2018-07-03T01:58:32.972Z,0.00
2018-07-03T01:59:32.869Z,0.00
2018-07-03T02:00:33.032Z,0.00
2018-07-03T02:01:32.679Z,0.00
2018-07-03T02:02:32.574Z,0.00
2018-07-03T02:03:32.481Z,0.00
2018-07-03T02:04:32.379Z,0.00
2018-07-03T02:05:32.288Z,4.00
2018-07-03T02:06:32.189Z,4.00
2018-07-03T02:07:32.086Z,4.00
2018-07-03T02:08:31.991Z,4.00
2018-07-03T02:09:31.886Z,0.00
2018-07-03T02:10:31.788Z,4.00
2018-07-03T02:11:31.695Z,4.00
2018-07-03T02:12:31.594Z,4.00
2018-07-03T02:13:31.491Z,4.00
2018-07-03T02:14:31.397Z,4.00
2018-07-03T02:15:31.287Z,8.00
2018-07-03T02:16:31.194Z,8.00
2018-07-03T02:17:31.103Z,12.00
2018-07-03T02:18:30.995Z,8.00
2018-07-03T02:19:30.892Z,8.00
2018-07-03T02:20:30.800Z,12.00
2018-07-03T02:21:30.697Z,16.00
2018-07-03T02:22:30.597Z,16.00
2018-07-03T02:23:30.505Z,20.00
2018-07-03T02:24:30.402Z,20.00
2018-07-03T02:25:30.297Z,24.00
2018-07-03T02:26:30.210Z,24.00
2018-07-03T02:27:30.110Z,28.00
2018-07-03T02:28:30.005Z,28.00
2018-07-03T02:29:29.918Z,32.00
2018-07-03T02:30:29.805Z,36.00
2018-07-03T02:31:29.714Z,40.00
2018-07-03T02:32:29.616Z,44.00
2018-07-03T02:33:29.513Z,48.00
2018-07-03T02:34:29.406Z,56.00
2018-07-03T02:35:29.314Z,60.00
2018-07-03T02:36:29.210Z,64.00
2018-07-03T02:37:29.107Z,72.00
2018-07-03T02:38:29.019Z,80.00
2018-07-03T02:39:28.916Z,84.00
2018-07-03T02:40:28.811Z,96.00
2018-07-03T02:41:28.720Z,104.00
2018-07-03T02:42:28.620Z,112.00
2018-07-03T02:43:28.517Z,120.00
2018-07-03T02:44:28.424Z,128.00
2018-07-03T02:45:28.325Z,140.00
2018-07-03T02:46:28.214Z,152.00
2018-07-03T02:47:28.122Z,164.00
2018-07-03T02:48:28.023Z,176.00
2018-07-03T02:49:27.923Z,188.00
2018-07-03T02:50:27.826Z,204.00
2018-07-03T02:51:27.727Z,220.00
2018-07-03T02:52:27.621Z,236.00
2018-07-03T02:53:27.530Z,252.00
2018-07-03T02:54:27.431Z,268.00
2018-07-03T02:55:27.328Z,284.00
2018-07-03T02:56:27.230Z,304.00
2018-07-03T02:57:27.127Z,320.00
2018-07-03T02:58:27.028Z,340.00
2018-07-03T02:59:26.939Z,360.00
2018-07-03T03:00:26.835Z,380.00
2018-07-03T03:01:26.732Z,400.00
2018-07-03T03:02:26.640Z,420.00
2018-07-03T03:03:26.538Z,440.00
2018-07-03T03:04:26.436Z,464.00
2018-07-03T03:05:26.346Z,484.00
2018-07-03T03:06:26.237Z,508.00
2018-07-03T03:07:26.147Z,532.00
2018-07-03T03:08:26.041Z,552.00
2018-07-03T03:09:25.942Z,572.00
2018-07-03T03:10:26.096Z,592.00
2018-07-03T03:11:25.737Z,616.00
2018-07-03T03:12:25.642Z,636.00
2018-07-03T03:13:25.539Z,660.00
2018-07-03T03:14:25.440Z,684.00
2018-07-03T03:15:25.353Z,712.00
2018-07-03T03:16:25.246Z,740.00
2018-07-03T03:17:25.141Z,764.00
2018-07-03T03:18:25.047Z,788.00
2018-07-03T03:19:24.942Z,816.00
2018-07-03T03:20:24.842Z,844.00
2018-07-03T03:21:24.755Z,868.00
2018-07-03T03:22:24.654Z,896.00
2018-07-03T03:23:24.542Z,920.00
2018-07-03T03:24:24.452Z,944.00
2018-07-03T03:25:24.357Z,972.00
2018-07-03T03:26:24.249Z,996.00
2018-07-03T03:27:24.163Z,1020.00
2018-07-03T03:28:24.050Z,1048.00
2018-07-03T03:29:23.947Z,1080.00
2018-07-03T03:30:23.859Z,1116.00
2018-07-03T03:31:23.756Z,1156.00
2018-07-03T03:32:23.654Z,1200.00
2018-07-03T03:33:23.565Z,1252.00
2018-07-03T03:34:23.457Z,1292.00
2018-07-03T03:35:23.354Z,1324.00
2018-07-03T03:36:23.262Z,1368.00
2018-07-03T03:37:23.159Z,1400.00
2018-07-03T03:38:23.059Z,1420.00
2018-07-03T03:39:22.969Z,1444.00
2018-07-03T03:40:22.864Z,1448.00
2018-07-03T03:41:22.761Z,1456.00
2018-07-03T03:42:22.666Z,1468.00
2018-07-03T03:43:22.562Z,1472.00
2018-07-03T03:44:22.465Z,1488.00
2018-07-03T03:45:22.375Z,1508.00
2018-07-03T03:46:22.267Z,1536.00
2018-07-03T03:47:22.165Z,1588.00
2018-07-03T03:48:22.073Z,1640.00
2018-07-03T03:49:21.967Z,1660.00
2018-07-03T03:50:21.868Z,1724.00
2018-07-03T03:51:21.777Z,1820.00
2018-07-03T03:52:21.671Z,1884.00
2018-07-03T03:53:21.579Z,1932.00
2018-07-03T03:54:21.479Z,1976.00
2018-07-03T03:55:21.376Z,2036.00
2018-07-03T03:56:21.288Z,2144.00
2018-07-03T03:57:21.186Z,2376.00
2018-07-03T03:58:21.078Z,2596.00
2018-07-03T03:59:21.000Z,2612.00
2018-07-03T04:00:20.885Z,2688.00
2018-07-03T04:01:20.796Z,2880.00
2018-07-03T04:02:20.687Z,3084.00
2018-07-03T04:03:20.596Z,3424.00
2018-07-03T04:04:20.495Z,3716.00
2018-07-03T04:05:20.391Z,3744.00
2018-07-03T04:06:20.306Z,3660.00
2018-07-03T04:07:20.204Z,3444.00
2018-07-03T04:08:20.106Z,3144.00
2018-07-03T04:09:20.005Z,2968.00
2018-07-03T04:10:19.905Z,2860.00
2018-07-03T04:11:19.814Z,2748.00
2018-07-03T04:12:19.708Z,2712.00
2018-07-03T04:13:19.617Z,2624.00
2018-07-03T04:14:19.510Z,2644.00
2018-07-03T04:15:19.420Z,2696.00
2018-07-03T04:16:19.324Z,2652.00
2018-07-03T04:17:19.231Z,2696.00
2018-07-03T04:18:19.123Z,2744.00
2018-07-03T04:19:19.034Z,2736.00
2018-07-03T04:20:19.183Z,2776.00
2018-07-03T04:21:18.836Z,2812.00
2018-07-03T04:22:18.738Z,2852.00
2018-07-03T04:23:18.648Z,2936.00
2018-07-03T04:24:18.552Z,3020.00
2018-07-03T04:25:18.448Z,3128.00
2018-07-03T04:26:18.362Z,3060.00
2018-07-03T04:27:18.259Z,3120.00
2018-07-03T04:28:18.169Z,3452.00
2018-07-03T04:29:18.066Z,3752.00
2018-07-03T04:30:17.972Z,3804.00
2018-07-03T04:31:17.868Z,3872.00
2018-07-03T04:32:17.779Z,3832.00
2018-07-03T04:33:17.676Z,3672.00
2018-07-03T04:34:17.582Z,3696.00
2018-07-03T04:35:17.490Z,3788.00
2018-07-03T04:36:17.389Z,3864.00
2018-07-03T04:37:17.299Z,4044.00
2018-07-03T04:38:17.199Z,4324.00
2018-07-03T04:39:17.120Z,4512.00
2018-07-03T04:40:17.000Z,4528.00
2018-07-03T04:41:16.930Z,4496.00
2018-07-03T04:42:16.821Z,4804.00
2018-07-03T04:43:16.717Z,5048.00
2018-07-03T04:44:16.629Z,5452.00
2018-07-03T04:45:16.538Z,5912.00
2018-07-03T04:46:16.430Z,6020.00
2018-07-03T04:47:16.342Z,6072.00
2018-07-03T04:48:16.239Z,6128.00
2018-07-03T04:49:16.148Z,6180.00
2018-07-03T04:50:16.053Z,6200.00
2018-07-03T04:51:15.950Z,6240.00
2018-07-03T04:52:15.861Z,6272.00
2018-07-03T04:53:15.828Z,6288.00
2018-07-03T04:54:15.683Z,6308.00
2018-07-03T04:55:15.829Z,6336.00
2018-07-03T04:56:15.486Z,6352.00
2018-07-03T04:57:15.396Z,6380.00
2018-07-03T04:58:15.297Z,6404.00
2018-07-03T04:59:15.204Z,6432.00
2018-07-03T05:00:15.111Z,6476.00
2018-07-03T05:01:15.021Z,6512.00
2018-07-03T05:02:14.926Z,6548.00
2018-07-03T05:03:14.836Z,6580.00
2018-07-03T05:04:14.750Z,6612.00
2018-07-03T05:05:14.647Z,6640.00
2018-07-03T05:06:14.553Z,6664.00
2018-07-03T05:07:14.474Z,6700.00
2018-07-03T05:08:14.368Z,6724.00
2018-07-03T05:09:14.277Z,6752.00
2018-07-03T05:10:14.194Z,6772.00
2018-07-03T05:11:14.112Z,6804.00
2018-07-03T05:12:14.006Z,6824.00
2018-07-03T05:13:13.914Z,6856.00
2018-07-03T05:14:13.828Z,6884.00
2018-07-03T05:15:13.736Z,6920.00
2018-07-03T05:16:13.648Z,6944.00
2018-07-03T05:17:13.557Z,6968.00
2018-07-03T05:18:13.463Z,6988.00
2018-07-03T05:19:13.371Z,7024.00
2018-07-03T05:20:13.283Z,7048.00
2018-07-03T05:21:13.191Z,7076.00
2018-07-03T05:22:13.098Z,7100.00
2018-07-03T05:23:13.006Z,7136.00
2018-07-03T05:24:12.918Z,7192.00
2018-07-03T05:25:13.126Z,7272.00
2018-07-03T05:26:12.741Z,7320.00
2018-07-03T05:27:12.654Z,7324.00
2018-07-03T05:28:12.566Z,7308.00
2018-07-03T05:29:12.476Z,7328.00
2018-07-03T05:30:12.391Z,7372.00
2018-07-03T05:31:12.300Z,7380.00
2018-07-03T05:32:12.206Z,7408.00
2018-07-03T05:33:12.115Z,7424.00
2018-07-03T05:34:12.021Z,7316.00
2018-07-03T05:35:11.941Z,6592.00
2018-07-03T05:36:11.857Z,7604.00
2018-07-03T05:37:11.785Z,7832.00
2018-07-03T05:38:11.673Z,7928.00
2018-07-03T05:39:11.581Z,7948.00
2018-07-03T05:40:11.500Z,7972.00
2018-07-03T05:41:11.410Z,8016.00
2018-07-03T05:42:11.322Z,8032.00
2018-07-03T05:43:11.234Z,8000.00
2018-07-03T05:44:11.146Z,7968.00
2018-07-03T05:45:11.063Z,7952.00
2018-07-03T05:46:10.969Z,7988.00
2018-07-03T05:47:10.877Z,8036.00
2018-07-03T05:48:10.793Z,8128.00
2018-07-03T05:49:10.710Z,8232.00
2018-07-03T05:50:10.624Z,8304.00
2018-07-03T05:51:10.533Z,8320.00
2018-07-03T05:52:10.435Z,8336.00
2018-07-03T05:53:10.357Z,8436.00
2018-07-03T05:54:10.271Z,8704.00
2018-07-03T05:55:10.180Z,9064.00
2018-07-03T05:56:10.137Z,9288.00
2018-07-03T05:57:10.014Z,9256.00
2018-07-03T05:58:09.917Z,9024.00
2018-07-03T05:59:09.828Z,8856.00
2018-07-03T06:00:10.014Z,8816.00
2018-07-03T06:01:09.662Z,8988.00
2018-07-03T06:02:09.568Z,9228.00
2018-07-03T06:03:09.489Z,9340.00
2018-07-03T06:04:09.396Z,9240.00
2018-07-03T06:05:09.305Z,9244.00
2018-07-03T06:06:09.234Z,9412.00
2018-07-03T06:07:09.140Z,9628.00
2018-07-03T06:08:09.048Z,9876.00
2018-07-03T06:09:09.030Z,10176.00
2018-07-03T06:10:08.896Z,10352.00
2018-07-03T06:11:08.793Z,10516.00
2018-07-03T06:12:08.712Z,10740.00
2018-07-03T06:13:08.620Z,10760.00
2018-07-03T06:14:08.540Z,10828.00
2018-07-03T06:15:08.447Z,11424.00
2018-07-03T06:16:08.362Z,12488.00
2018-07-03T06:17:08.306Z,13396.00
2018-07-03T06:18:08.188Z,13520.00
2018-07-03T06:19:08.109Z,13048.00
2018-07-03T06:20:08.019Z,13032.00
2018-07-03T06:21:07.930Z,13696.00
2018-07-03T06:22:07.859Z,14116.00
2018-07-03T06:23:07.764Z,13760.00
2018-07-03T06:24:07.679Z,13544.00
2018-07-03T06:25:07.590Z,13336.00
2018-07-03T06:26:07.515Z,13304.00
2018-07-03T06:27:07.424Z,14600.00
2018-07-03T06:28:07.347Z,15948.00
2018-07-03T06:29:07.317Z,16352.00
2018-07-03T06:30:07.163Z,16864.00
2018-07-03T06:31:07.083Z,17696.00
2018-07-03T06:32:07.009Z,18528.00
2018-07-03T06:33:06.919Z,18336.00
2018-07-03T06:34:06.826Z,17216.00
2018-07-03T06:35:06.749Z,16288.00
2018-07-03T06:36:06.666Z,16512.00
2018-07-03T06:37:06.575Z,16672.00
2018-07-03T06:38:06.500Z,15872.00
2018-07-03T06:39:06.409Z,14992.00
2018-07-03T06:40:06.332Z,16504.00
2018-07-03T06:41:06.239Z,21728.00
2018-07-03T06:42:06.164Z,27072.00
2018-07-03T06:43:06.072Z,24832.00
2018-07-03T06:44:05.993Z,20064.00
2018-07-03T06:45:05.914Z,18240.00
2018-07-03T06:46:05.820Z,16480.00
2018-07-03T06:47:05.741Z,15700.00
2018-07-03T06:48:05.657Z,16528.00
2018-07-03T06:49:05.578Z,21248.00
2018-07-03T06:50:05.484Z,27840.00
2018-07-03T06:51:05.406Z,27456.00
2018-07-03T06:52:05.313Z,20640.00
2018-07-03T06:53:05.233Z,17248.00
2018-07-03T06:54:05.159Z,17408.00
2018-07-03T06:55:05.070Z,18688.00
2018-07-03T06:56:04.990Z,20736.00
2018-07-03T06:57:04.910Z,22272.00
2018-07-03T06:58:04.824Z,20448.00
2018-07-03T06:59:04.745Z,17856.00
2018-07-03T07:00:04.653Z,17728.00
2018-07-03T07:01:04.574Z,17536.00
2018-07-03T07:02:04.495Z,17376.00
2018-07-03T07:03:04.401Z,17600.00
2018-07-03T07:04:04.326Z,17536.00
2018-07-03T07:05:04.261Z,17696.00
2018-07-03T07:06:04.154Z,17856.00
2018-07-03T07:07:04.075Z,17760.00
2018-07-03T07:08:03.999Z,17952.00
2018-07-03T07:09:03.999Z,18048.00
2018-07-03T07:10:03.833Z,18336.00
2018-07-03T07:11:03.755Z,18432.00
2018-07-03T07:12:03.659Z,18496.00
2018-07-03T07:13:03.582Z,18592.00
2018-07-03T07:14:03.509Z,18720.00
2018-07-03T07:15:03.460Z,18880.00
2018-07-03T07:16:03.343Z,19232.00
2018-07-03T07:17:03.261Z,19872.00
2018-07-03T07:18:03.166Z,20416.00
2018-07-03T07:19:03.088Z,20704.00
2018-07-03T07:20:03.014Z,20896.00
2018-07-03T07:21:02.926Z,21440.00
2018-07-03T07:22:02.845Z,21984.00
2018-07-03T07:23:02.773Z,23392.00
2018-07-03T07:24:02.681Z,25216.00
2018-07-03T07:25:02.591Z,27328.00
2018-07-03T07:26:02.517Z,29312.00
2018-07-03T07:27:02.438Z,31552.00
2018-07-03T07:28:02.345Z,35648.00
2018-07-03T07:29:02.266Z,43104.00
2018-07-03T07:30:02.193Z,54496.00
2018-07-03T07:31:02.114Z,65920.00
2018-07-03T07:32:02.023Z,76160.00
2018-07-03T07:33:01.944Z,80512.00
2018-07-03T07:34:01.861Z,78464.00
2018-07-03T07:35:01.773Z,75296.00
2018-07-03T07:36:01.699Z,72480.00
2018-07-03T07:37:01.617Z,75040.00
2018-07-03T07:38:01.538Z,82176.00
2018-07-03T07:39:01.448Z,91872.00
2018-07-03T07:40:01.369Z,96704.00
2018-07-03T07:41:01.293Z,98688.00
2018-07-03T07:42:01.215Z,101536.00
2018-07-03T07:43:01.125Z,109888.00
2018-07-03T07:44:01.040Z,120256.00
2018-07-03T07:45:00.975Z,126304.00
2018-07-03T07:46:00.887Z,135520.00
2018-07-03T07:47:00.797Z,146592.00
2018-07-03T07:48:00.733Z,161920.00
2018-07-03T07:49:00.647Z,179648.00
2018-07-03T07:50:00.809Z,192032.00
2018-07-03T07:51:00.469Z,197792.00
2018-07-03T07:52:00.393Z,179232.00
2018-07-03T07:53:00.314Z,154496.00
2018-07-03T07:54:00.237Z,136480.00
2018-07-03T07:55:00.152Z,129344.00
2018-07-03T07:56:00.070Z,116576.00
2018-07-03T07:56:59.990Z,106912.00
2018-07-03T07:57:59.906Z,101120.00
2018-07-03T07:58:59.828Z,95136.00
2018-07-03T07:59:59.993Z,88416.00
2018-07-03T08:00:59.678Z,80800.00
2018-07-03T08:01:59.582Z,73088.00
2018-07-03T08:02:59.504Z,67264.00
2018-07-03T08:03:59.412Z,65792.00
2018-07-03T08:04:59.333Z,63712.00
2018-07-03T08:05:59.262Z,61536.00
2018-07-03T08:06:59.184Z,58976.00
2018-07-03T08:07:59.099Z,56704.00
2018-07-03T08:08:59.008Z,54592.00
2018-07-03T08:09:58.933Z,52928.00
2018-07-03T08:10:58.854Z,50304.00
2018-07-03T08:11:58.778Z,47456.00
2018-07-03T08:12:58.700Z,44992.00
2018-07-03T08:13:58.605Z,43488.00
2018-07-03T08:14:58.527Z,44544.00
2018-07-03T08:15:58.450Z,45280.00
2018-07-03T08:16:58.373Z,44608.00
2018-07-03T08:17:58.290Z,37248.00
2018-07-03T08:18:58.199Z,25024.00
2018-07-03T08:19:58.124Z,13976.00
2018-07-03T08:20:58.044Z,8028.00
2018-07-03T08:21:57.969Z,7248.00
2018-07-03T08:22:57.879Z,6916.00
2018-07-03T08:23:57.797Z,6736.00
2018-07-03T08:24:57.719Z,6660.00
2018-07-03T08:25:57.631Z,6632.00
2018-07-03T08:26:57.555Z,6640.00
2018-07-03T08:27:57.460Z,6668.00
2018-07-03T08:28:57.386Z,6716.00
2018-07-03T08:29:57.288Z,6772.00
2018-07-03T08:30:57.208Z,6836.00
2018-07-03T08:31:57.125Z,6888.00
2018-07-03T08:32:57.047Z,6996.00
2018-07-03T08:33:56.973Z,7208.00
2018-07-03T08:34:56.872Z,7584.00
2018-07-03T08:35:56.780Z,8784.00
2018-07-03T08:36:56.692Z,15492.00
2018-07-03T08:37:56.671Z,31520.00
2018-07-03T08:38:56.524Z,46592.00
2018-07-03T08:39:56.442Z,53696.00
2018-07-03T08:40:56.351Z,56736.00
2018-07-03T08:41:56.265Z,57984.00
2018-07-03T08:42:56.226Z,57600.00
2018-07-03T08:43:56.099Z,57120.00
2018-07-03T08:44:56.007Z,55680.00
2018-07-03T08:45:55.924Z,57024.00
2018-07-03T08:46:55.833Z,58368.00
2018-07-03T08:47:55.758Z,58560.00
2018-07-03T08:48:55.667Z,57536.00
2018-07-03T08:49:55.575Z,58880.00
2018-07-03T08:50:55.492Z,60704.00
2018-07-03T08:51:55.447Z,61024.00
2018-07-03T08:52:55.325Z,61248.00
2018-07-03T08:53:55.252Z,62176.00
2018-07-03T08:54:55.160Z,62304.00
2018-07-03T08:55:55.076Z,65888.00
2018-07-03T08:56:54.987Z,69312.00
2018-07-03T08:57:54.912Z,71648.00
2018-07-03T08:58:54.832Z,69728.00
2018-07-03T08:59:54.993Z,67136.00
2018-07-03T09:00:54.738Z,64480.00
2018-07-03T09:01:54.583Z,64800.00
2018-07-03T09:02:54.493Z,67968.00
2018-07-03T09:03:54.443Z,71296.00
2018-07-03T09:04:54.341Z,75872.00
2018-07-03T09:05:54.256Z,81024.00
2018-07-03T09:06:54.166Z,82720.00
2018-07-03T09:07:54.089Z,80000.00
2018-07-03T09:08:54.010Z,75104.00
2018-07-03T09:09:53.939Z,70432.00
2018-07-03T09:10:53.857Z,66816.00
2018-07-03T09:11:53.775Z,63456.00
2018-07-03T09:12:53.685Z,60832.00
2018-07-03T09:13:53.610Z,59648.00
2018-07-03T09:14:53.532Z,59488.00
2018-07-03T09:15:53.453Z,58464.00
2018-07-03T09:16:53.373Z,58752.00
2018-07-03T09:17:53.368Z,58816.00
2018-07-03T09:18:53.213Z,58624.00
2018-07-03T09:19:53.144Z,58688.00
2018-07-03T09:20:53.062Z,59168.00
2018-07-03T09:21:52.967Z,59840.00
2018-07-03T09:22:52.902Z,60000.00
2018-07-03T09:23:52.808Z,60928.00
2018-07-03T09:24:52.729Z,61088.00
2018-07-03T09:25:52.658Z,61216.00
2018-07-03T09:26:52.577Z,61600.00
2018-07-03T09:27:52.495Z,61632.00
2018-07-03T09:28:52.416Z,62112.00
2018-07-03T09:29:52.342Z,62912.00
2018-07-03T09:30:52.263Z,62720.00
2018-07-03T09:31:52.201Z,62432.00
2018-07-03T09:32:52.113Z,62336.00
2018-07-03T09:33:52.027Z,62080.00
2018-07-03T09:34:51.949Z,62208.00
2018-07-03T09:35:51.872Z,61920.00
2018-07-03T09:36:51.795Z,61600.00
2018-07-03T09:37:51.715Z,60960.00
2018-07-03T09:38:51.633Z,61152.00
2018-07-03T09:39:51.811Z,61536.00
2018-07-03T09:40:51.478Z,62176.00
2018-07-03T09:41:51.405Z,62400.00
2018-07-03T09:42:51.340Z,61856.00
2018-07-03T09:43:51.244Z,60864.00
2018-07-03T09:44:51.166Z,60544.00
2018-07-03T09:45:51.091Z,60288.00
2018-07-03T09:46:51.013Z,59648.00
2018-07-03T09:47:50.933Z,58912.00
2018-07-03T09:48:50.904Z,58240.00
2018-07-03T09:49:50.771Z,58144.00
2018-07-03T09:50:50.694Z,56864.00
2018-07-03T09:51:50.623Z,56352.00
2018-07-03T09:52:50.543Z,56352.00
2018-07-03T09:53:50.460Z,55456.00
2018-07-03T09:54:50.431Z,54208.00
2018-07-03T09:55:50.302Z,53536.00
2018-07-03T09:56:50.227Z,53344.00
2018-07-03T09:57:50.172Z,52128.00
2018-07-03T09:58:50.071Z,50656.00
2018-07-03T09:59:49.993Z,49632.00
2018-07-03T10:00:49.928Z,48800.00
2018-07-03T10:01:49.832Z,48224.00
2018-07-03T10:02:49.753Z,47072.00
2018-07-03T10:03:49.677Z,47040.00
2018-07-03T10:04:49.600Z,46688.00
2018-07-03T10:05:49.527Z,46304.00
2018-07-03T10:06:49.461Z,45280.00
2018-07-03T10:07:49.375Z,44352.00
2018-07-03T10:08:49.298Z,44096.00
2018-07-03T10:09:49.223Z,44288.00
2018-07-03T10:10:49.145Z,44992.00
2018-07-03T10:11:49.068Z,73600.00
2018-07-03T10:12:48.990Z,147232.00
2018-07-03T10:13:48.909Z,207840.00
2018-07-03T10:14:48.830Z,204128.00
2018-07-03T10:15:48.755Z,175936.00
2018-07-03T10:16:48.676Z,149344.00
2018-07-03T10:17:48.595Z,143840.00
2018-07-03T10:18:48.564Z,138848.00
2018-07-03T10:19:48.447Z,132736.00
2018-07-03T10:20:48.369Z,121152.00
2018-07-03T10:21:48.295Z,120192.00
2018-07-03T10:22:48.221Z,131776.00
2018-07-03T10:23:48.137Z,143456.00
2018-07-03T10:24:48.058Z,149504.00
2018-07-03T10:25:47.987Z,158016.00
2018-07-03T10:26:47.918Z,164960.00
2018-07-03T10:27:47.840Z,162816.00
2018-07-03T10:28:47.767Z,161568.00
2018-07-03T10:29:47.678Z,160192.00
2018-07-03T10:30:47.599Z,158688.00
2018-07-03T10:31:47.546Z,151904.00
2018-07-03T10:32:47.458Z,151744.00
2018-07-03T10:33:47.376Z,152864.00
2018-07-03T10:34:47.297Z,155392.00
2018-07-03T10:35:47.235Z,156608.00
2018-07-03T10:36:47.160Z,160352.00
2018-07-03T10:37:47.082Z,160128.00
2018-07-03T10:38:47.007Z,159712.00
2018-07-03T10:39:47.181Z,162880.00
2018-07-03T10:40:46.852Z,162112.00
2018-07-03T10:41:46.779Z,160736.00
2018-07-03T10:42:46.714Z,142912.00
2018-07-03T10:43:46.638Z,127392.00
2018-07-03T10:44:46.559Z,125120.00
2018-07-03T10:45:46.488Z,126112.00
2018-07-03T10:46:46.410Z,125024.00
2018-07-03T10:47:46.350Z,126944.00
2018-07-03T10:48:46.337Z,127232.00
2018-07-03T10:49:46.189Z,126560.00
2018-07-03T10:50:46.122Z,124960.00
2018-07-03T10:51:46.041Z,124640.00
2018-07-03T10:52:45.963Z,125152.00
2018-07-03T10:53:45.903Z,127712.00
2018-07-03T10:54:45.823Z,124672.00
2018-07-03T10:55:45.747Z,123680.00
2018-07-03T10:56:45.679Z,124384.00
2018-07-03T10:57:45.603Z,123232.00
2018-07-03T10:58:45.524Z,123072.00
2018-07-03T10:59:45.460Z,122016.00
2018-07-03T11:00:45.379Z,121504.00
2018-07-03T11:01:45.296Z,121280.00
2018-07-03T11:02:45.218Z,120224.00
2018-07-03T11:03:45.171Z,120736.00
2018-07-03T11:04:45.080Z,119808.00
2018-07-03T11:05:45.064Z,122208.00
2018-07-03T11:06:44.919Z,121696.00
2018-07-03T11:07:44.852Z,121440.00
2018-07-03T11:08:44.774Z,119840.00
2018-07-03T11:09:44.700Z,121760.00
2018-07-03T11:10:44.622Z,122560.00
2018-07-03T11:11:44.552Z,121056.00
2018-07-03T11:12:44.474Z,119808.00
2018-07-03T11:13:44.429Z,118432.00
2018-07-03T11:14:44.321Z,116608.00
2018-07-03T11:15:44.242Z,116480.00
2018-07-03T11:16:44.177Z,115712.00
2018-07-03T11:17:44.094Z,118080.00
2018-07-03T11:18:44.016Z,119296.00
2018-07-03T11:19:44.012Z,121408.00
2018-07-03T11:20:43.875Z,122528.00
2018-07-03T11:21:43.793Z,118976.00
2018-07-03T11:22:43.717Z,125472.00
2018-07-03T11:23:43.639Z,129504.00
2018-07-03T11:24:43.561Z,136992.00
2018-07-03T11:25:43.502Z,135296.00
2018-07-03T11:26:43.421Z,131456.00
2018-07-03T11:27:43.336Z,128960.00
2018-07-03T11:28:43.257Z,126112.00
2018-07-03T11:29:43.186Z,119872.00
2018-07-03T11:30:43.117Z,118400.00
2018-07-03T11:31:43.041Z,118144.00
2018-07-03T11:32:42.962Z,117280.00
2018-07-03T11:33:42.919Z,116256.00
2018-07-03T11:34:42.803Z,114048.00
2018-07-03T11:35:42.741Z,113152.00
2018-07-03T11:36:42.661Z,111456.00
2018-07-03T11:37:42.589Z,111392.00
2018-07-03T11:38:42.502Z,111712.00
2018-07-03T11:39:42.421Z,112224.00
2018-07-03T11:40:42.357Z,111776.00
2018-07-03T11:41:42.280Z,110464.00
2018-07-03T11:42:42.203Z,108512.00
2018-07-03T11:43:42.122Z,106176.00
2018-07-03T11:44:42.080Z,103680.00
2018-07-03T11:45:41.983Z,102528.00
2018-07-03T11:46:41.939Z,103072.00
2018-07-03T11:47:41.824Z,103200.00
2018-07-03T11:48:41.746Z,104224.00
2018-07-03T11:49:41.662Z,103392.00
2018-07-03T11:50:41.596Z,105792.00
2018-07-03T11:51:41.522Z,106272.00
2018-07-03T11:52:41.444Z,105824.00
2018-07-03T11:53:41.425Z,105920.00
2018-07-03T11:54:41.283Z,106176.00
2018-07-03T11:55:41.220Z,107552.00
2018-07-03T11:56:41.142Z,107264.00
2018-07-03T11:57:41.068Z,105152.00
2018-07-03T11:58:40.989Z,104288.00
2018-07-03T11:59:40.905Z,105440.00
2018-07-03T12:00:40.839Z,106624.00
2018-07-03T12:01:40.794Z,106528.00
2018-07-03T12:02:40.686Z,71360.00
2018-07-03T12:03:40.609Z,108160.00
2018-07-03T12:04:40.531Z,85376.00
2018-07-03T12:05:40.449Z,106464.00